createdAt,value
2022-10-10T00:01:22.589Z,100875.41
2022-10-10T00:03:49.454Z,100882.69
2022-10-10T00:06:16.502Z,100870.59
2022-10-10T00:08:43.986Z,100877.06
2022-10-10T00:11:11.289Z,100868.63
2022-10-10T00:13:38.479Z,100869.78
2022-10-10T00:16:05.290Z,100871.44
2022-10-10T00:18:32.295Z,100866.97
2022-10-10T00:20:59.108Z,100866.97
2022-10-10T00:23:25.858Z,100865.28
2022-10-10T00:25:52.955Z,100866.44
2022-10-10T00:28:26.111Z,100867.28
2022-10-10T00:30:52.757Z,100868.09
2022-10-10T00:33:19.827Z,100866.44
2022-10-10T00:35:46.540Z,100874.88
2022-10-10T00:38:19.932Z,100860.31
2022-10-10T00:40:50.532Z,100859.47
2022-10-10T00:43:17.771Z,100857.81
2022-10-10T00:45:45.699Z,100859.78
2022-10-10T00:48:23.032Z,100849.69
2022-10-10T00:50:49.591Z,100858.13
2022-10-10T00:53:18.053Z,100852.84
2022-10-10T00:55:45.197Z,100853.66
2022-10-10T00:58:12.809Z,100857.63
2022-10-10T01:00:39.421Z,100860.72
2022-10-10T01:03:06.103Z,100864.38
2022-10-10T01:05:33.370Z,100870.31
2022-10-10T01:08:00.921Z,100863.88
2022-10-10T01:10:27.684Z,100866.16
2022-10-10T01:13:09.829Z,100861.69
2022-10-10T01:15:36.435Z,100861.69
2022-10-10T01:18:41.722Z,100860.00
2022-10-10T01:21:11.106Z,100868.44
2022-10-10T01:23:55.969Z,100861.19
2022-10-10T01:26:44.000Z,100870.75
2022-10-10T01:29:26.030Z,100871.91
2022-10-10T01:31:55.759Z,100867.41
2022-10-10T01:34:37.413Z,100859.31
2022-10-10T01:37:21.077Z,100864.09
2022-10-10T01:39:47.778Z,100860.47
2022-10-10T01:42:24.652Z,100868.06
2022-10-10T01:44:54.113Z,100869.19
2022-10-10T01:47:22.181Z,100864.72
2022-10-10T01:49:52.052Z,100871.50
2022-10-10T01:52:36.992Z,100869.84
2022-10-10T01:55:13.777Z,100865.34
2022-10-10T01:57:49.562Z,100868.16
2022-10-10T02:00:17.461Z,100866.50
2022-10-10T02:03:00.498Z,100868.47
2022-10-10T02:05:32.635Z,100870.78
2022-10-10T02:08:17.956Z,100868.81
2022-10-10T02:10:49.778Z,100857.88
2022-10-10T02:13:17.186Z,100858.72
2022-10-10T02:15:52.674Z,100859.84
2022-10-10T02:18:21.168Z,100861.81
2022-10-10T02:20:48.690Z,100865.81
2022-10-10T02:23:16.757Z,100865.81
2022-10-10T02:25:46.286Z,100864.97
2022-10-10T02:28:12.909Z,100863.31
2022-10-10T02:30:43.263Z,100864.44
2022-10-10T02:33:11.953Z,100866.09
2022-10-10T02:35:40.919Z,100864.44
2022-10-10T02:38:09.472Z,100861.09
2022-10-10T02:40:36.247Z,100864.72
2022-10-10T02:43:04.862Z,100858.28
2022-10-10T02:45:33.379Z,100865.56
2022-10-10T02:48:03.033Z,100853.81
2022-10-10T02:50:30.305Z,100858.59
2022-10-10T02:52:57.095Z,100869.00
2022-10-10T02:55:23.736Z,100869.00
2022-10-10T02:57:50.629Z,100856.91
2022-10-10T03:00:17.823Z,100852.44
2022-10-10T03:02:44.707Z,100855.59
2022-10-10T03:05:11.343Z,100854.75
2022-10-10T03:07:37.949Z,100845.50
2022-10-10T03:10:07.595Z,100857.03
2022-10-10T03:12:34.876Z,100849.75
2022-10-10T03:15:01.478Z,100856.19
2022-10-10T03:17:28.114Z,100853.38
2022-10-10T03:19:54.770Z,100848.94
2022-10-10T03:22:21.618Z,100848.09
2022-10-10T03:24:48.217Z,100849.25
2022-10-10T03:27:17.262Z,100851.22
2022-10-10T03:29:43.953Z,100851.50
2022-10-10T03:32:11.265Z,100859.94
2022-10-10T03:34:37.958Z,100855.50
2022-10-10T03:37:11.179Z,100859.09
2022-10-10T03:39:37.838Z,100861.91
2022-10-10T03:42:04.454Z,100854.13
2022-10-10T03:44:31.083Z,100853.00
2022-10-10T03:46:57.708Z,100861.41
2022-10-10T03:49:24.327Z,100864.22
2022-10-10T03:51:51.045Z,100861.41
2022-10-10T03:54:17.711Z,100870.16
2022-10-10T03:56:44.360Z,100868.16
2022-10-10T03:59:11.055Z,100867.66
2022-10-10T04:01:37.833Z,100872.44
2022-10-10T04:04:05.326Z,100869.31
2022-10-10T04:06:32.040Z,100867.34
2022-10-10T04:08:58.637Z,100874.09
2022-10-10T04:11:25.260Z,100872.13
2022-10-10T04:13:51.920Z,100868.47
2022-10-10T04:16:18.677Z,100872.13
2022-10-10T04:18:45.247Z,100872.44
2022-10-10T04:21:11.913Z,100883.69
2022-10-10T04:23:40.593Z,100884.53
2022-10-10T04:26:07.879Z,100893.25
2022-10-10T04:28:34.562Z,100897.19
2022-10-10T04:31:01.220Z,100891.59
2022-10-10T04:33:27.799Z,100891.59
2022-10-10T04:35:54.443Z,100896.38
2022-10-10T04:38:22.866Z,100901.97
2022-10-10T04:40:50.998Z,100897.50
2022-10-10T04:43:17.793Z,100903.13
2022-10-10T04:45:44.460Z,100910.75
2022-10-10T04:48:11.624Z,100902.63
2022-10-10T04:50:38.360Z,100902.63
2022-10-10T04:53:05.081Z,100911.03
2022-10-10T04:55:31.677Z,100919.47
2022-10-10T04:57:58.373Z,100919.75
2022-10-10T05:00:25.405Z,100921.75
2022-10-10T05:02:52.419Z,100923.72
2022-10-10T05:05:19.344Z,100918.44
2022-10-10T05:07:46.026Z,100910.84
2022-10-10T05:10:12.652Z,100915.28
2022-10-10T05:12:39.355Z,100917.78
2022-10-10T05:15:06.451Z,100921.97
2022-10-10T05:17:33.124Z,100932.28
2022-10-10T05:19:59.750Z,100929.34
2022-10-10T05:22:26.474Z,100933.22
2022-10-10T05:24:53.086Z,100948.28
2022-10-10T05:27:20.071Z,100945.38
2022-10-10T05:29:46.685Z,100941.34
2022-10-10T05:32:13.266Z,100953.31
2022-10-10T05:34:39.856Z,100955.72
2022-10-10T05:37:14.041Z,100949.66
2022-10-10T05:39:40.660Z,100962.47
2022-10-10T05:42:07.502Z,100967.13
2022-10-10T05:44:34.152Z,100979.09
2022-10-10T05:47:00.803Z,100981.47
2022-10-10T05:49:27.416Z,100993.75
2022-10-10T05:51:54.045Z,100996.75
2022-10-10T05:54:21.549Z,100990.19
2022-10-10T05:56:48.345Z,100994.88
2022-10-10T05:59:14.964Z,100992.28
2022-10-10T06:01:41.575Z,101006.53
2022-10-10T06:04:08.819Z,101015.47
2022-10-10T06:06:35.487Z,101021.31
2022-10-10T06:09:02.219Z,101020.69
2022-10-10T06:11:29.432Z,101025.69
2022-10-10T06:13:57.218Z,101036.66
2022-10-10T06:16:24.938Z,101040.00
2022-10-10T06:18:52.106Z,101041.88
2022-10-10T06:21:19.107Z,101045.47
2022-10-10T06:23:45.933Z,101054.75
2022-10-10T06:26:12.943Z,101065.72
2022-10-10T06:28:39.639Z,101073.31
2022-10-10T06:31:08.499Z,101078.94
2022-10-10T06:33:37.492Z,101084.56
2022-10-10T06:36:05.578Z,101096.13
2022-10-10T06:38:32.676Z,101101.34
2022-10-10T06:41:03.310Z,101099.88
2022-10-10T06:43:29.898Z,101103.50
2022-10-10T06:45:56.977Z,101116.44
2022-10-10T06:48:23.565Z,101127.69
2022-10-10T06:51:00.321Z,101133.03
2022-10-10T06:53:28.026Z,101151.03
2022-10-10T06:55:55.643Z,101162.28
2022-10-10T06:58:23.512Z,101164.25
2022-10-10T07:00:51.481Z,101180.31
2022-10-10T07:03:18.405Z,101193.53
2022-10-10T07:05:45.295Z,101199.16
2022-10-10T07:08:12.051Z,101201.13
2022-10-10T07:10:39.187Z,101211.59
2022-10-10T07:13:05.774Z,101214.41
2022-10-10T07:15:32.401Z,101226.44
2022-10-10T07:17:59.452Z,101228.75
2022-10-10T07:20:26.361Z,101245.34
2022-10-10T07:22:53.648Z,101265.03
2022-10-10T07:25:20.398Z,101268.66
2022-10-10T07:27:47.042Z,101267.50
2022-10-10T07:30:13.955Z,101276.50
2022-10-10T07:32:40.663Z,101284.31
2022-10-10T07:35:07.391Z,101289.66
2022-10-10T07:37:34.455Z,101293.31
2022-10-10T07:40:01.345Z,101310.47
2022-10-10T07:42:27.948Z,101316.72
2022-10-10T07:44:54.549Z,101318.69
2022-10-10T07:47:21.655Z,101324.63
2022-10-10T07:49:48.379Z,101337.00
2022-10-10T07:52:15.078Z,101332.00
2022-10-10T07:54:42.644Z,101338.75
2022-10-10T07:57:14.893Z,101339.09
2022-10-10T07:59:43.052Z,101341.91
2022-10-10T08:02:09.855Z,101350.63
2022-10-10T08:04:36.525Z,101356.56
2022-10-10T08:07:03.228Z,101354.38
2022-10-10T08:09:31.132Z,101349.38
2022-10-10T08:11:57.715Z,101360.09
2022-10-10T08:14:24.362Z,101367.69
2022-10-10T08:16:55.788Z,101374.44
2022-10-10T08:19:22.374Z,101382.38
2022-10-10T08:21:48.979Z,101374.22
2022-10-10T08:24:15.748Z,101385.75
2022-10-10T08:26:47.266Z,101388.06
2022-10-10T08:29:13.991Z,101404.09
2022-10-10T08:31:40.633Z,101405.56
2022-10-10T08:34:07.300Z,101418.22
2022-10-10T08:36:33.980Z,101413.75
2022-10-10T08:39:01.806Z,101422.78
2022-10-10T08:41:28.366Z,101415.50
2022-10-10T08:43:57.923Z,101423.41
2022-10-10T08:46:27.511Z,101426.50
2022-10-10T08:48:57.479Z,101425.97
2022-10-10T08:51:27.208Z,101429.09
2022-10-10T08:53:55.730Z,101437.81
2022-10-10T08:56:26.168Z,101435.31
2022-10-10T08:58:55.781Z,101449.13
2022-10-10T09:01:28.000Z,101446.66
2022-10-10T09:03:57.592Z,101462.97
2022-10-10T09:06:42.953Z,101464.09
2022-10-10T09:09:26.450Z,101462.41
2022-10-10T09:11:55.837Z,101459.94
2022-10-10T09:14:41.192Z,101458.25
2022-10-10T09:17:22.477Z,101471.75
2022-10-10T09:20:01.635Z,101477.69
2022-10-10T09:22:31.359Z,101472.66
2022-10-10T09:25:15.516Z,101485.91
2022-10-10T09:27:46.645Z,101495.47
2022-10-10T09:30:20.890Z,101494.91
2022-10-10T09:33:01.739Z,101496.03
2022-10-10T09:35:29.444Z,101498.31
2022-10-10T09:38:18.978Z,101500.59
2022-10-10T09:40:49.846Z,101505.06
2022-10-10T09:43:20.630Z,101511.81
2022-10-10T09:45:56.372Z,101510.13
2022-10-10T09:48:29.093Z,101513.75
2022-10-10T09:50:56.027Z,101519.38
2022-10-10T09:53:22.943Z,101515.75
2022-10-10T09:55:50.550Z,101516.88
2022-10-10T09:58:36.928Z,101522.19
2022-10-10T10:01:23.401Z,101523.06
2022-10-10T10:04:23.444Z,101528.69
2022-10-10T10:07:03.593Z,101534.31
2022-10-10T10:09:30.305Z,101541.88
2022-10-10T10:11:57.647Z,101540.75
2022-10-10T10:14:29.407Z,101543.84
2022-10-10T10:17:19.809Z,101538.25
2022-10-10T10:19:47.536Z,101553.97
2022-10-10T10:22:26.332Z,101552.84
2022-10-10T10:24:53.923Z,101553.97
2022-10-10T10:27:24.233Z,101557.63
2022-10-10T10:29:54.346Z,101555.91
2022-10-10T10:32:44.650Z,101568.88
2022-10-10T10:35:27.686Z,101564.09
2022-10-10T10:38:01.255Z,101575.03
2022-10-10T10:40:39.219Z,101572.22
2022-10-10T10:43:24.369Z,101577.00
2022-10-10T10:45:57.472Z,101577.84
2022-10-10T10:48:29.360Z,101581.50
2022-10-10T10:50:59.679Z,101585.16
2022-10-10T10:53:32.310Z,101590.78
2022-10-10T10:56:02.135Z,101596.38
2022-10-10T10:59:16.985Z,101603.66
2022-10-10T11:01:55.798Z,101607.63
2022-10-10T11:05:25.125Z,101610.44
2022-10-10T11:07:25.125Z,101616.88
2022-10-10T11:09:55.481Z,101616.88
2022-10-10T11:12:43.190Z,101627.00
2022-10-10T11:15:16.740Z,101623.34
2022-10-10T11:17:54.598Z,101628.97
2022-10-10T11:20:21.348Z,101633.44
2022-10-10T11:22:58.823Z,101630.63
2022-10-10T11:25:28.290Z,101631.47
2022-10-10T11:28:07.137Z,101633.16
2022-10-10T11:30:36.289Z,101631.47
2022-10-10T11:33:11.565Z,101640.75
2022-10-10T11:35:46.292Z,101633.16
2022-10-10T11:38:12.887Z,101633.16
2022-10-10T11:40:45.584Z,101636.81
2022-10-10T11:43:15.705Z,101644.09
2022-10-10T11:45:49.733Z,101649.41
2022-10-10T11:48:23.211Z,101656.72
2022-10-10T11:50:53.457Z,101651.91
2022-10-10T11:53:23.014Z,101658.00
2022-10-10T11:56:09.887Z,101670.31
2022-10-10T11:58:41.801Z,101664.13
2022-10-10T12:01:14.126Z,101662.69
2022-10-10T12:03:40.766Z,101671.66
2022-10-10T12:06:07.547Z,101662.63
2022-10-10T12:08:36.937Z,101665.97
2022-10-10T12:11:09.643Z,101672.97
2022-10-10T12:13:36.244Z,101681.38
2022-10-10T12:16:10.030Z,101679.06
2022-10-10T12:18:51.328Z,101678.78
2022-10-10T12:21:19.739Z,101684.38
2022-10-10T12:24:06.789Z,101679.81
2022-10-10T12:26:52.328Z,101680.03
2022-10-10T12:29:46.746Z,101685.09
2022-10-10T12:32:15.590Z,101695.44
2022-10-10T12:34:50.617Z,101695.97
2022-10-10T12:37:26.673Z,101685.28
2022-10-10T12:40:09.845Z,101683.28
2022-10-10T12:42:40.514Z,101684.91
2022-10-10T12:45:26.037Z,101684.63
2022-10-10T12:48:06.877Z,101688.81
2022-10-10T12:50:42.313Z,101697.81
2022-10-10T12:53:20.038Z,101694.69
2022-10-10T12:55:50.875Z,101704.50
2022-10-10T12:58:34.180Z,101709.00
2022-10-10T13:01:09.476Z,101710.38
2022-10-10T13:03:54.996Z,101713.72
2022-10-10T13:06:37.281Z,101709.78
2022-10-10T13:09:07.679Z,101725.22
2022-10-10T13:11:49.819Z,101721.56
2022-10-10T13:14:20.642Z,101719.59
2022-10-10T13:16:47.338Z,101726.56
2022-10-10T13:19:22.664Z,101729.94
2022-10-10T13:21:52.705Z,101724.31
2022-10-10T13:24:27.034Z,101735.28
2022-10-10T13:26:54.252Z,101736.94
2022-10-10T13:29:27.991Z,101737.47
2022-10-10T13:31:57.318Z,101740.00
2022-10-10T13:34:28.397Z,101740.00
2022-10-10T13:36:56.729Z,101744.47
2022-10-10T13:39:28.783Z,101750.44
2022-10-10T13:41:56.173Z,101754.94
2022-10-10T13:44:24.282Z,101754.94
2022-10-10T13:46:51.075Z,101762.22
2022-10-10T13:49:20.986Z,101756.91
2022-10-10T13:51:52.277Z,101745.94
2022-10-10T13:54:37.232Z,101762.81
2022-10-10T13:57:16.230Z,101764.78
2022-10-10T13:59:43.764Z,101769.59
2022-10-10T14:02:15.027Z,101774.69
2022-10-10T14:04:44.573Z,101777.19
2022-10-10T14:07:20.440Z,101767.63
2022-10-10T14:09:53.627Z,101777.50
2022-10-10T14:12:29.046Z,101776.66
2022-10-10T14:15:01.297Z,101784.28
2022-10-10T14:17:28.555Z,101789.91
2022-10-10T14:20:04.246Z,101793.00
2022-10-10T14:22:33.513Z,101788.22
2022-10-10T14:25:00.189Z,101798.13
2022-10-10T14:27:36.901Z,101797.56
2022-10-10T14:30:05.971Z,101797.56
2022-10-10T14:32:32.722Z,101805.16
2022-10-10T14:35:03.046Z,101803.78
2022-10-10T14:37:31.632Z,101804.94
2022-10-10T14:40:01.679Z,101806.66
2022-10-10T14:42:29.578Z,101817.06
2022-10-10T14:44:56.431Z,101813.72
2022-10-10T14:47:30.089Z,101820.19
2022-10-10T14:49:58.144Z,101821.88
2022-10-10T14:52:28.987Z,101831.44
2022-10-10T14:55:01.187Z,101832.59
2022-10-10T14:57:34.004Z,101830.91
2022-10-10T15:00:00.602Z,101834.84
2022-10-10T15:02:29.183Z,101841.63
2022-10-10T15:04:55.899Z,101838.28
2022-10-10T15:07:25.515Z,101839.41
2022-10-10T15:10:27.492Z,101844.47
2022-10-10T15:12:43.756Z,101849.25
2022-10-10T15:15:12.057Z,101855.19
2022-10-10T15:17:39.096Z,101864.47
2022-10-10T15:20:07.301Z,101861.09
2022-10-10T15:22:34.257Z,101863.91
2022-10-10T15:25:06.739Z,101866.19
2022-10-10T15:27:33.585Z,101868.16
2022-10-10T15:30:18.415Z,101876.03
2022-10-10T15:32:45.986Z,101882.50
2022-10-10T15:35:17.021Z,101884.47
2022-10-10T15:37:50.516Z,101896.84
2022-10-10T15:40:20.894Z,101889.25
2022-10-10T15:42:47.615Z,101897.16
2022-10-10T15:45:19.342Z,101901.13
2022-10-10T15:47:58.926Z,101903.09
2022-10-10T15:50:30.184Z,101905.34
2022-10-10T15:53:00.183Z,101899.72
2022-10-10T15:55:26.777Z,101914.94
2022-10-10T15:57:53.368Z,101914.38
2022-10-10T16:00:20.045Z,101925.63
2022-10-10T16:02:46.751Z,101924.78
2022-10-10T16:05:13.449Z,101930.72
2022-10-10T16:07:47.677Z,101931.84
2022-10-10T16:10:15.130Z,101927.34
2022-10-10T16:12:41.705Z,101936.06
2022-10-10T16:15:08.740Z,101942.00
2022-10-10T16:17:35.369Z,101939.47
2022-10-10T16:20:01.997Z,101943.13
2022-10-10T16:22:28.833Z,101943.72
2022-10-10T16:27:43.210Z,101958.91
2022-10-10T16:30:10.576Z,101955.53
2022-10-10T16:32:42.140Z,101953.84
2022-10-10T16:35:09.983Z,101958.09
2022-10-10T16:37:36.719Z,101968.22
2022-10-10T16:40:03.436Z,101975.25
2022-10-10T16:42:30.034Z,101971.06
2022-10-10T16:44:56.694Z,101976.97
2022-10-10T16:47:23.287Z,101970.50
2022-10-10T16:49:50.037Z,101977.56
2022-10-10T16:52:16.635Z,101984.31
2022-10-10T16:54:43.239Z,101993.88
2022-10-10T16:57:14.769Z,101995.03
2022-10-10T16:59:41.343Z,102001.78
2022-10-10T17:02:10.191Z,101997.56
2022-10-10T17:04:36.865Z,102003.19
2022-10-10T17:07:03.492Z,102011.06
2022-10-10T17:09:30.810Z,102010.50
2022-10-10T17:11:57.586Z,102025.69
2022-10-10T17:14:24.267Z,102024.88
2022-10-10T17:17:11.028Z,102033.59
2022-10-10T17:19:37.606Z,102031.38
2022-10-10T17:22:04.207Z,102030.53
2022-10-10T17:24:30.846Z,102034.44
2022-10-10T17:26:57.491Z,102044.84
2022-10-10T17:29:24.940Z,102048.78
2022-10-10T17:31:51.537Z,102057.53
2022-10-10T17:34:19.145Z,102053.88
2022-10-10T17:36:45.884Z,102052.47
2022-10-10T17:39:12.446Z,102063.16
2022-10-10T17:41:39.207Z,102063.16
2022-10-10T17:44:10.573Z,102061.75
2022-10-10T17:46:37.757Z,102067.38
2022-10-10T17:49:05.659Z,102078.91
2022-10-10T17:51:33.053Z,102077.22
2022-10-10T17:54:00.020Z,102083.13
2022-10-10T17:56:26.659Z,102084.25
2022-10-10T17:58:53.244Z,102091.84
2022-10-10T18:01:20.388Z,102095.78
2022-10-10T18:03:47.371Z,102100.00
2022-10-10T18:06:15.693Z,102106.47
2022-10-10T18:08:42.591Z,102112.31
2022-10-10T18:11:19.454Z,102114.59
2022-10-10T18:13:46.105Z,102119.38
2022-10-10T18:16:16.045Z,102116.84
2022-10-10T18:18:48.224Z,102120.78
2022-10-10T18:21:17.228Z,102125.56
2022-10-10T18:23:43.832Z,102129.50
2022-10-10T18:26:12.199Z,102134.28
2022-10-10T18:28:40.222Z,102138.19
2022-10-10T18:31:13.339Z,102136.50
2022-10-10T18:33:40.815Z,102144.41
2022-10-10T18:36:08.127Z,102151.13
2022-10-10T18:38:34.815Z,102153.94
2022-10-10T18:41:05.881Z,102154.22
2022-10-10T18:43:33.207Z,102150.59
2022-10-10T18:46:00.778Z,102156.22
2022-10-10T18:48:27.456Z,102148.91
2022-10-10T18:50:59.904Z,102165.75
2022-10-10T18:53:26.653Z,102163.22
2022-10-10T18:55:57.412Z,102171.09
2022-10-10T18:58:24.196Z,102175.88
2022-10-10T19:00:50.892Z,102169.69
2022-10-10T19:03:17.781Z,102178.97
2022-10-10T19:05:44.398Z,102179.22
2022-10-10T19:08:11.023Z,102187.66
2022-10-10T19:10:44.046Z,102190.78
2022-10-10T19:13:10.677Z,102195.53
2022-10-10T19:15:37.428Z,102189.94
2022-10-10T19:18:04.348Z,102199.19
2022-10-10T19:20:31.871Z,102197.22
2022-10-10T19:22:58.734Z,102198.03
2022-10-10T19:25:25.508Z,102204.25
2022-10-10T19:27:52.209Z,102207.91
2022-10-10T19:30:18.925Z,102212.69
2022-10-10T19:35:37.328Z,102216.63
2022-10-10T19:38:04.898Z,102216.91
2022-10-10T19:40:31.640Z,102228.16
2022-10-10T19:42:58.367Z,102238.00
2022-10-10T19:45:25.323Z,102234.06
2022-10-10T19:47:52.584Z,102240.78
2022-10-10T19:50:19.175Z,102248.69
2022-10-10T19:52:45.791Z,102253.16
2022-10-10T19:55:12.399Z,102264.13
2022-10-10T19:57:39.022Z,102257.41
2022-10-10T20:00:07.229Z,102261.59
2022-10-10T20:02:33.887Z,102263.88
2022-10-10T20:05:00.494Z,102268.34
2022-10-10T20:07:27.067Z,102271.72
2022-10-10T20:09:54.485Z,102276.22
2022-10-10T20:12:21.123Z,102272.28
2022-10-10T20:14:47.727Z,102266.38
2022-10-10T20:17:22.233Z,102268.06
2022-10-10T20:19:48.869Z,102278.19
2022-10-10T20:22:15.468Z,102279.84
2022-10-10T20:24:42.121Z,102277.63
2022-10-10T20:27:19.700Z,102274.81
2022-10-10T20:29:46.567Z,102277.34
2022-10-10T20:32:13.370Z,102279.84
2022-10-10T20:34:40.157Z,102292.25
2022-10-10T20:37:15.289Z,102297.56
2022-10-10T20:39:42.129Z,102301.25
2022-10-10T20:42:09.526Z,102303.78
2022-10-10T20:44:36.542Z,102305.75
2022-10-10T20:47:03.654Z,102302.94
2022-10-10T20:49:30.629Z,102302.94
2022-10-10T20:51:57.229Z,102306.28
2022-10-10T20:54:24.408Z,102309.41
2022-10-10T20:56:51.095Z,102307.44
2022-10-10T20:59:18.558Z,102314.19
2022-10-10T21:01:46.052Z,102315.88
2022-10-10T21:04:14.252Z,102316.16
2022-10-10T21:06:43.013Z,102313.34
2022-10-10T21:09:10.653Z,102316.16
2022-10-10T21:11:39.275Z,102319.22
2022-10-10T21:14:05.981Z,102312.75
2022-10-10T21:16:33.969Z,102323.19
2022-10-10T21:19:01.160Z,102319.81
2022-10-10T21:21:29.854Z,102317.00
2022-10-10T21:23:57.036Z,102320.91
2022-10-10T21:26:24.653Z,102316.16
2022-10-10T21:28:51.479Z,102320.91
2022-10-10T21:31:22.717Z,102326.84
2022-10-10T21:33:49.351Z,102335.28
2022-10-10T21:36:16.826Z,102332.47
2022-10-10T21:38:43.748Z,102327.97
2022-10-10T21:41:12.663Z,102338.38
2022-10-10T21:43:40.466Z,102343.16
2022-10-10T21:46:08.601Z,102343.41
2022-10-10T21:48:36.034Z,102341.75
2022-10-10T21:51:02.833Z,102352.16
2022-10-10T21:53:29.781Z,102346.81
2022-10-10T21:55:56.445Z,102355.50
2022-10-10T21:58:26.076Z,102361.13
2022-10-10T22:00:52.817Z,102353.25
2022-10-10T22:03:19.543Z,102354.38
2022-10-10T22:05:46.126Z,102353.53
2022-10-10T22:08:12.693Z,102356.66
2022-10-10T22:10:40.678Z,102361.97
2022-10-10T22:13:07.392Z,102368.44
2022-10-10T22:15:34.118Z,102363.94
2022-10-10T22:18:00.935Z,102367.88
2022-10-10T22:20:27.614Z,102360.81
2022-10-10T22:22:54.346Z,102369.25
2022-10-10T22:25:20.985Z,102376.31
2022-10-10T22:27:47.645Z,102370.94
2022-10-10T22:30:14.402Z,102376.88
2022-10-10T22:32:41.108Z,102376.28
2022-10-10T22:35:07.903Z,102372.91
2022-10-10T22:37:34.586Z,102375.72
2022-10-10T22:40:01.197Z,102377.13
2022-10-10T22:42:27.875Z,102377.41
2022-10-10T22:44:54.625Z,102379.66
2022-10-10T22:47:21.262Z,102380.78
2022-10-10T22:49:47.898Z,102376.28
2022-10-10T22:52:16.232Z,102379.09
2022-10-10T22:54:42.921Z,102382.75
2022-10-10T22:57:16.677Z,102386.09
2022-10-10T22:59:43.303Z,102386.94
2022-10-10T23:02:09.869Z,102388.91
2022-10-10T23:04:36.483Z,102398.19
2022-10-10T23:07:03.832Z,102390.88
2022-10-10T23:09:30.454Z,102393.94
2022-10-10T23:11:57.061Z,102403.47
2022-10-10T23:14:23.664Z,102400.66
2022-10-10T23:16:50.322Z,102401.81
2022-10-10T23:19:16.985Z,102403.78
2022-10-10T23:21:43.570Z,102402.94
2022-10-10T23:24:10.205Z,102399.53
2022-10-10T23:26:36.862Z,102407.13
2022-10-10T23:29:03.840Z,102410.78
2022-10-10T23:31:30.429Z,102399.84
2022-10-10T23:33:57.071Z,102404.63
2022-10-10T23:36:23.699Z,102415.28
2022-10-10T23:38:50.310Z,102418.94
2022-10-10T23:41:16.913Z,102416.38
2022-10-10T23:43:43.496Z,102408.25
2022-10-10T23:46:10.562Z,102406.28
2022-10-10T23:48:37.175Z,102410.22
2022-10-10T23:51:06.875Z,102425.38
2022-10-10T23:53:34.034Z,102424.25
2022-10-10T23:56:00.652Z,102415.25
2022-10-10T23:58:27.299Z,102420.03
